createdAt,value
2022-08-17T00:02:26.501Z,22.98
2022-08-17T00:07:28.575Z,21.80
2022-08-17T00:12:42.055Z,21.52
2022-08-17T00:17:51.720Z,24.23
2022-08-17T00:23:07.096Z,19.95
2022-08-17T00:28:08.668Z,26.55
2022-08-17T00:33:17.021Z,19.77
2022-08-17T00:38:18.730Z,20.58
2022-08-17T00:43:32.094Z,19.83
2022-08-17T00:48:33.623Z,24.63
2022-08-17T00:53:37.075Z,22.55
2022-08-17T00:58:38.610Z,21.33
2022-08-17T01:03:40.144Z,25.88
2022-08-17T01:08:41.668Z,24.05
2022-08-17T01:13:43.361Z,24.45
2022-08-17T01:18:45.947Z,20.33
2022-08-17T01:23:47.454Z,16.98
2022-08-17T01:28:54.767Z,23.02
2022-08-17T01:33:59.451Z,19.30
2022-08-17T01:39:05.271Z,22.00
2022-08-17T01:44:07.400Z,21.48
2022-08-17T01:49:10.721Z,22.70
2022-08-17T01:54:13.772Z,29.40
2022-08-17T01:59:16.436Z,23.15
2022-08-17T02:04:17.999Z,28.75
2022-08-17T02:09:20.281Z,27.52
2022-08-17T02:14:25.012Z,26.02
2022-08-17T02:19:26.537Z,31.17
2022-08-17T02:24:59.608Z,28.65
2022-08-17T02:29:52.551Z,29.13
2022-08-17T02:34:54.082Z,27.70
2022-08-17T02:39:58.802Z,31.77
2022-08-17T02:45:01.371Z,38.65
2022-08-17T02:50:03.641Z,34.50
2022-08-17T02:55:19.267Z,28.48
2022-08-17T03:00:23.988Z,29.02
2022-08-17T03:05:26.614Z,27.95
2022-08-17T03:10:29.625Z,28.88
2022-08-17T03:15:32.300Z,33.05
2022-08-17T03:20:34.036Z,29.13
2022-08-17T03:25:42.692Z,31.27
2022-08-17T03:30:45.610Z,33.85
2022-08-17T03:35:47.294Z,34.38
2022-08-17T03:40:57.765Z,35.72
2022-08-17T03:46:35.227Z,31.85
2022-08-17T03:51:55.871Z,29.08
2022-08-17T03:57:06.590Z,31.35
2022-08-17T04:02:11.055Z,32.92
2022-08-17T04:07:12.662Z,28.48
2022-08-17T04:12:15.826Z,34.97
2022-08-17T04:17:17.344Z,34.17
2022-08-17T04:22:32.945Z,33.05
2022-08-17T04:27:35.909Z,33.13
2022-08-17T04:33:06.243Z,36.35
2022-08-17T04:38:10.460Z,38.80
2022-08-17T04:43:14.250Z,35.28
2022-08-17T04:48:15.776Z,32.67
2022-08-17T04:53:17.924Z,36.83
2022-08-17T04:58:19.643Z,37.08
2022-08-17T05:03:21.171Z,33.55
2022-08-17T05:08:22.696Z,37.75
2022-08-17T05:13:25.402Z,34.53
2022-08-17T05:18:27.635Z,32.20
2022-08-17T05:23:41.902Z,32.25
2022-08-17T05:28:44.768Z,29.70
2022-08-17T05:33:47.676Z,29.25
2022-08-17T05:38:49.192Z,34.92
2022-08-17T05:43:54.359Z,28.17
2022-08-17T05:49:00.899Z,29.50
2022-08-17T05:54:39.805Z,33.33
2022-08-17T05:59:50.364Z,25.15
2022-08-17T06:05:25.298Z,33.97
2022-08-17T06:10:39.930Z,27.70
2022-08-17T06:16:02.195Z,29.08
2022-08-17T06:21:04.678Z,30.75
2022-08-17T06:26:11.563Z,28.05
2022-08-17T06:31:34.688Z,26.45
2022-08-17T06:37:09.249Z,30.83
2022-08-17T06:42:54.007Z,25.50
2022-08-17T06:48:02.651Z,23.08
2022-08-17T06:53:40.055Z,24.05
2022-08-17T06:58:43.325Z,26.00
2022-08-17T07:03:54.340Z,24.67
2022-08-17T07:09:08.250Z,23.60
2022-08-17T07:14:20.212Z,29.02
2022-08-17T07:19:23.665Z,21.88
2022-08-17T07:24:30.802Z,19.02
2022-08-17T07:29:33.735Z,24.90
2022-08-17T07:35:02.973Z,21.27
2022-08-17T07:40:27.078Z,25.13
2022-08-17T07:45:47.046Z,18.80
2022-08-17T07:50:50.836Z,24.08
2022-08-17T07:55:53.238Z,18.10
2022-08-17T08:01:09.366Z,19.83
2022-08-17T08:06:23.577Z,19.38
2022-08-17T08:11:33.542Z,20.95
2022-08-17T08:16:35.228Z,19.48
2022-08-17T08:21:49.239Z,18.42
2022-08-17T08:26:56.836Z,18.67
2022-08-17T08:32:07.618Z,17.00
2022-08-17T08:37:47.603Z,18.73
2022-08-17T08:43:02.293Z,16.52
2022-08-17T08:48:46.276Z,15.57
2022-08-17T08:53:49.359Z,14.85
2022-08-17T08:59:07.643Z,16.98
2022-08-17T09:05:10.659Z,16.00
2022-08-17T09:10:09.217Z,15.25
2022-08-17T09:15:29.275Z,15.05
2022-08-17T09:20:35.814Z,14.98
2022-08-17T09:25:49.878Z,14.70
2022-08-17T09:30:55.297Z,11.95
2022-08-17T09:36:02.779Z,15.65
2022-08-17T09:41:18.211Z,20.95
2022-08-17T09:46:24.804Z,15.57
2022-08-17T09:51:40.125Z,13.88
2022-08-17T09:57:29.906Z,15.95
2022-08-17T10:02:53.499Z,15.63
2022-08-17T10:08:02.441Z,15.63
2022-08-17T10:13:16.323Z,14.85
2022-08-17T10:18:42.242Z,15.13
2022-08-17T10:24:02.331Z,11.90
2022-08-17T10:29:12.414Z,16.73
2022-08-17T10:34:28.714Z,14.70
2022-08-17T10:39:52.483Z,14.45
2022-08-17T10:45:26.792Z,12.52
2022-08-17T10:56:13.723Z,15.38
2022-08-17T11:01:16.047Z,12.65
2022-08-17T11:06:21.491Z,11.90
2022-08-17T11:11:47.268Z,12.45
2022-08-17T11:17:11.340Z,14.27
2022-08-17T11:22:33.372Z,12.95
2022-08-17T11:27:35.471Z,11.63
2022-08-17T11:32:47.096Z,12.32
2022-08-17T11:38:17.390Z,11.68
2022-08-17T11:43:38.351Z,10.98
2022-08-17T11:49:30.526Z,13.45
2022-08-17T11:54:47.571Z,13.07
2022-08-17T11:59:51.763Z,19.00
2022-08-17T12:05:12.126Z,16.00
2022-08-17T12:10:17.145Z,14.27
2022-08-17T12:15:21.292Z,12.23
2022-08-17T12:20:33.557Z,13.52
2022-08-17T12:25:47.693Z,12.65
2022-08-17T12:30:50.052Z,15.25
2022-08-17T12:36:03.086Z,14.02
2022-08-17T12:41:24.887Z,12.80
2022-08-17T12:46:26.482Z,12.15
2022-08-17T12:51:29.208Z,12.10
2022-08-17T12:56:31.327Z,12.85
2022-08-17T13:01:34.956Z,13.93
2022-08-17T13:06:37.305Z,13.85
2022-08-17T13:11:56.244Z,11.20
2022-08-17T13:16:59.837Z,13.32
2022-08-17T13:22:01.575Z,10.88
2022-08-17T13:27:10.205Z,11.50
2022-08-17T13:32:13.736Z,11.93
2022-08-17T13:37:28.992Z,11.98
2022-08-17T13:42:52.058Z,11.88
2022-08-17T13:48:25.440Z,10.82
2022-08-17T13:53:32.773Z,11.65
2022-08-17T13:58:37.133Z,10.35
2022-08-17T14:03:38.657Z,12.75
2022-08-17T14:08:43.657Z,12.40
2022-08-17T14:13:46.282Z,12.77
2022-08-17T14:18:56.023Z,10.50
2022-08-17T14:23:58.863Z,12.38
2022-08-17T14:29:00.587Z,12.65
2022-08-17T14:34:02.121Z,14.43
2022-08-17T14:39:04.258Z,10.98
2022-08-17T14:44:05.933Z,10.48
2022-08-17T14:49:10.972Z,10.60
2022-08-17T14:54:33.524Z,12.55
2022-08-17T14:59:35.590Z,11.35
2022-08-17T15:04:40.797Z,10.65
2022-08-17T15:09:45.559Z,15.25
2022-08-17T15:14:47.090Z,12.75
2022-08-17T15:19:48.628Z,14.25
2022-08-17T15:24:50.148Z,10.25
2022-08-17T15:29:51.718Z,14.82
2022-08-17T15:34:57.053Z,9.90
2022-08-17T15:40:00.690Z,15.77
2022-08-17T15:45:10.754Z,12.90
2022-08-17T15:50:12.296Z,14.18
2022-08-17T15:55:14.724Z,14.10
2022-08-17T16:00:17.280Z,13.25
2022-08-17T16:05:21.652Z,9.98
2022-08-17T16:10:35.658Z,11.65
2022-08-17T16:15:38.065Z,13.55
2022-08-17T16:20:39.586Z,12.43
2022-08-17T16:25:52.884Z,13.13
2022-08-17T16:30:55.719Z,13.57
2022-08-17T16:35:57.234Z,11.43
2022-08-17T16:40:58.740Z,13.10
2022-08-17T16:46:00.853Z,8.82
2022-08-17T16:51:04.505Z,12.05
2022-08-17T16:56:07.186Z,11.50
2022-08-17T17:01:08.752Z,10.45
2022-08-17T17:06:27.767Z,13.95
2022-08-17T17:11:34.094Z,15.93
2022-08-17T17:16:58.659Z,13.80
2022-08-17T17:22:03.790Z,10.90
2022-08-17T17:27:26.506Z,11.07
2022-08-17T17:32:37.984Z,10.52
2022-08-17T17:37:39.511Z,11.60
2022-08-17T17:42:41.271Z,10.80
2022-08-17T17:52:56.063Z,17.45
2022-08-17T17:58:13.369Z,18.27
2022-08-17T18:03:22.334Z,15.13
2022-08-17T18:08:33.961Z,16.63
2022-08-17T18:14:14.802Z,12.18
2022-08-17T18:19:20.341Z,14.13
2022-08-17T18:24:32.970Z,18.13
2022-08-17T18:29:39.905Z,15.90
2022-08-17T18:34:47.922Z,17.05
2022-08-17T18:39:50.208Z,16.00
2022-08-17T18:44:54.967Z,20.05
2022-08-17T18:49:58.757Z,15.57
2022-08-17T18:55:00.113Z,23.88
2022-08-17T19:00:02.043Z,17.23
2022-08-17T19:05:32.723Z,21.83
2022-08-17T19:10:46.304Z,25.38
2022-08-17T19:16:18.022Z,17.90
2022-08-17T19:21:30.769Z,28.77
2022-08-17T19:26:54.451Z,23.45
2022-08-17T19:31:58.438Z,21.48
2022-08-17T19:37:11.394Z,20.30
2022-08-17T19:42:31.056Z,21.75
2022-08-17T19:48:03.335Z,28.35
2022-08-17T19:53:13.524Z,23.20
2022-08-17T19:58:26.824Z,28.88
2022-08-17T20:03:35.256Z,43.15
2022-08-17T20:08:39.165Z,50.00
2022-08-17T20:13:49.684Z,44.05
2022-08-17T20:19:04.830Z,40.83
2022-08-17T20:24:35.843Z,51.70
2022-08-17T20:29:52.177Z,23.15
2022-08-17T20:35:16.769Z,31.80
2022-08-17T20:40:21.340Z,14.35
2022-08-17T20:45:25.041Z,28.00
2022-08-17T20:50:38.533Z,25.88
2022-08-17T20:55:52.516Z,15.10
2022-08-17T21:00:57.378Z,34.30
2022-08-17T21:06:16.848Z,51.38
2022-08-17T21:11:56.778Z,36.08
2022-08-17T21:17:01.320Z,21.55
2022-08-17T21:22:53.827Z,22.88
2022-08-17T21:28:34.320Z,54.88
2022-08-17T21:33:37.854Z,26.35
2022-08-17T21:38:41.742Z,72.90
2022-08-17T21:43:46.466Z,23.75
2022-08-17T21:48:50.465Z,26.63
2022-08-17T21:54:00.499Z,29.33
2022-08-17T21:59:27.160Z,35.05
2022-08-17T22:04:29.020Z,29.40
2022-08-17T22:09:49.039Z,19.85
2022-08-17T22:14:57.932Z,28.23
2022-08-17T22:20:18.458Z,22.88
2022-08-17T22:25:20.635Z,22.90
2022-08-17T22:30:26.289Z,25.77
2022-08-17T22:35:33.300Z,22.15
2022-08-17T22:40:34.810Z,22.52
2022-08-17T22:45:40.386Z,23.92
2022-08-17T22:50:41.924Z,16.30
2022-08-17T22:56:14.025Z,24.20
2022-08-17T23:01:32.581Z,21.75
2022-08-17T23:06:35.072Z,22.27
2022-08-17T23:11:48.703Z,17.45
2022-08-17T23:16:51.230Z,16.00
2022-08-17T23:21:55.223Z,14.52
2022-08-17T23:26:59.515Z,15.30
2022-08-17T23:32:01.429Z,19.52
2022-08-17T23:42:08.090Z,21.92
2022-08-17T23:47:10.362Z,22.88
2022-08-17T23:52:15.011Z,15.77
2022-08-17T23:57:19.602Z,16.27
